M S San Francisco — WZC3886 — position and weather

sailwx.info

Track history (hours):
 
Tides and Currents Weather Stations Pressure Air Temp Water Temp Dewpoint Dewpoint Depression Visibility Wind Speed Wind Dir Waves Ship Positions

M S San Francisco

Owner: GOLDEN GATE BRIDGE HWY & TRANSP DISTRICT, LARKSPUR, CA. More information available from US FCC via Universal Licensing System and Coast Guard Vessel Documentation Center.

Last reported at 2016-Jul-28 00:33 UTC. Time now 2016-Jul-28 00:55 UTC.
Position N 37°48' W 122°24'.

Length 58 m.

Type: Passenger vessel. MMSI: 366963980.

Date/timePositionNaut miles runAvg speedWind from/ knotsBaromVisibWave heightAir tempDewpointWater temp
2016-Jul-28 00:33N 37°48' W 122°24'3 2.7
2016-Jul-27 23:33N 37°50' W 122°25'3 3.3
2016-Jul-27 22:33N 37°51' W 122°29'5 5.3
2016-Jul-27 21:33N 37°48' W 122°24'5 5.4
2016-Jul-27 20:34N 37°51' W 122°29'5 4.6
2016-Jul-27 19:33N 37°49' W 122°24'1 1.3
2016-Jul-27 18:34N 37°48' W 122°24'5 5.4
2016-Jul-27 17:33N 37°51' W 122°29'5 5.4
2016-Jul-27 16:33N 37°48' W 122°24'3 2.7
2016-Jul-27 15:33N 37°50' W 122°25'3 2.6
2016-Jul-27 14:34N 37°48' W 122°23'9 9.3
2016-Jul-27 13:33N 37°56' W 122°29'1 0.2
2016-Jul-27 07:12N 37°57' W 122°31'6 9.5
2016-Jul-27 06:33N 37°52' W 122°25'6 5.9
2016-Jul-27 05:33N 37°47' W 122°23'0 0.0
2016-Jul-27 04:33N 37°47' W 122°23'0 0.0
2016-Jul-27 03:33N 37°47' W 122°23'0 0.0
2016-Jul-27 02:33N 37°47' W 122°23'3 3.2
2016-Jul-27 01:34N 37°50' W 122°24'9 6.3
2016-Jul-27 00:12N 37°57' W 122°30'0 0.0
2016-Jul-26 04:33N 37°57' W 122°31'6 5.9
2016-Jul-26 03:33N 37°51' W 122°28'5 4.9
2016-Jul-26 02:33N 37°48' W 122°24'5 5.4
2016-Jul-26 01:33N 37°51' W 122°29'5 5.4
2016-Jul-26 00:34N 37°48' W 122°24'2 2.5
2016-Jul-25 23:33N 37°50' W 122°24'2 2.4
2016-Jul-25 22:34N 37°51' W 122°27'4 4.2
2016-Jul-25 21:33N 37°48' W 122°24'5 5.4
2016-Jul-25 20:34N 37°51' W 122°29'4 3.7
2016-Jul-25 19:33N 37°50' W 122°25'2 2.0
2016-Jul-25 18:33N 37°48' W 122°24'5 5.4
2016-Jul-25 17:34N 37°51' W 122°29'5 5.4
2016-Jul-25 16:33N 37°48' W 122°24'3 2.7
2016-Jul-25 15:33N 37°50' W 122°26'2 2.4
2016-Jul-25 14:33N 37°48' W 122°23'9 8.6
2016-Jul-25 13:33N 37°56' W 122°29'2 0.2
2016-Jul-25 04:33N 37°57' W 122°31'1110.5
2016-Jul-25 03:33N 37°48' W 122°24'5 5.4
2016-Jul-25 02:33N 37°51' W 122°29'5 5.4
2016-Jul-25 01:34N 37°48' W 122°23'5 5.1
2016-Jul-25 00:33N 37°51' W 122°28'3 3.2
2016-Jul-24 23:34N 37°50' W 122°25'2 1.9
2016-Jul-24 22:34N 37°48' W 122°23'5 5.4
2016-Jul-24 21:34N 37°51' W 122°29'6 5.5
2016-Jul-24 20:33N 37°57' W 122°31'0 0.0
2016-Jul-24 19:33N 37°57' W 122°31'0 0.0
2016-Jul-24 18:33N 37°57' W 122°31'0 0.0
2016-Jul-24 17:33N 37°57' W 122°31'0 0.0
2016-Jul-24 16:33N 37°57' W 122°31'0 0.0
2016-Jul-24 15:33N 37°57' W 122°31'0 0.0
2016-Jul-24 14:33N 37°57' W 122°31'0 0.0
2016-Jul-24 13:33N 37°57' W 122°31'0 0.0
2016-Jul-24 12:33N 37°57' W 122°31'0 0.0
2016-Jul-24 11:33N 37°57' W 122°31'0 0.0
2016-Jul-24 10:33N 37°57' W 122°31'0 0.0
2016-Jul-24 09:33N 37°57' W 122°31'0 0.0
2016-Jul-24 08:33N 37°57' W 122°31'0 0.0
2016-Jul-24 07:33N 37°57' W 122°31'0 0.0
2016-Jul-24 06:33N 37°57' W 122°31'0 0.0
2016-Jul-24 05:33N 37°57' W 122°31'0 0.0
2016-Jul-24 04:33N 37°57' W 122°31'0 0.0
2016-Jul-24 03:33N 37°57' W 122°31'0 0.0
2016-Jul-24 02:33N 37°57' W 122°31'1010.5
2016-Jul-24 01:34N 37°48' W 122°24'5 5.4
2016-Jul-24 00:33N 37°51' W 122°29'5 5.4
2016-Jul-23 23:33N 37°48' W 122°24'5 5.4
2016-Jul-23 22:33N 37°51' W 122°29'3 3.3
2016-Jul-23 21:33N 37°50' W 122°25'2 2.2
2016-Jul-23 20:34N 37°48' W 122°24'5 5.4
2016-Jul-23 19:33N 37°51' W 122°29'2 2.1
2016-Jul-23 18:34N 37°50' W 122°26'3 3.4
2016-Jul-23 17:33N 37°48' W 122°24'1110.6
2016-Jul-23 16:33N 37°57' W 122°31'0 0.0
2016-Jul-23 04:17N 37°57' W 122°31'6 8.5
2016-Jul-23 03:33N 37°52' W 122°25'3 3.0
2016-Jul-23 02:33N 37°51' W 122°29'5 5.4
2016-Jul-23 01:33N 37°48' W 122°23'4 4.1
2016-Jul-23 00:33N 37°51' W 122°27'0 0.4
2016-Jul-22 23:33N 37°51' W 122°27'4 4.1
2016-Jul-22 22:33N 37°48' W 122°24'10 9.8
2016-Jul-22 21:33N 37°56' W 122°30'1 0.8
2016-Jul-22 20:33N 37°57' W 122°31'0 0.0
2016-Jul-22 19:33N 37°57' W 122°31'0 0.0
2016-Jul-22 04:33N 37°57' W 122°31'6 5.7
2016-Jul-22 03:33N 37°52' W 122°27'5 4.8
2016-Jul-22 02:33N 37°48' W 122°24'5 5.4
2016-Jul-22 01:34N 37°51' W 122°29'5 5.4
2016-Jul-22 00:34N 37°48' W 122°23'3 2.7
2016-Jul-21 23:33N 37°50' W 122°25'2 2.1
2016-Jul-21 22:33N 37°51' W 122°28'4 4.4
2016-Jul-21 21:33N 37°48' W 122°24'5 5.4
2016-Jul-21 20:33N 37°51' W 122°29'4 4.3
2016-Jul-21 19:34N 37°49' W 122°24'1 1.4
2016-Jul-21 18:33N 37°48' W 122°24'5 5.4
2016-Jul-21 17:33N 37°51' W 122°29'5 5.4
2016-Jul-21 16:33N 37°48' W 122°24'3 2.6
2016-Jul-21 15:33N 37°50' W 122°25'2 2.5
2016-Jul-21 14:34N 37°48' W 122°23'10 9.4
2016-Jul-21 13:32N 37°56' W 122°30'1 0.1
2016-Jul-21 04:19N 37°57' W 122°31'5 6.9
2016-Jul-21 03:34N 37°53' W 122°26'3 3.0
2016-Jul-21 02:34N 37°51' W 122°29'5 5.5
2016-Jul-21 01:34N 37°48' W 122°23'4 4.3
2016-Jul-21 00:33N 37°51' W 122°27'1 0.5
2016-Jul-20 23:34N 37°50' W 122°27'4 3.8
2016-Jul-20 22:33N 37°48' W 122°24'1 0.6
2016-Jul-20 21:33N 37°48' W 122°23'10 0.6
2016-Jul-20 04:12N 37°57' W 122°31'6 9.1
2016-Jul-20 03:33N 37°52' W 122°27'5 4.7
2016-Jul-20 02:33N 37°48' W 122°24'5 5.4
2016-Jul-20 01:33N 37°51' W 122°29'5 5.4
2016-Jul-20 00:34N 37°48' W 122°23'3 2.8
2016-Jul-19 23:34N 37°50' W 122°25'2 1.6
2016-Jul-19 22:34N 37°51' W 122°27'4 4.0
2016-Jul-19 21:33N 37°48' W 122°24'5 5.4
2016-Jul-19 20:33N 37°51' W 122°29'4 3.9
2016-Jul-19 19:32N 37°49' W 122°24'2 1.9
2016-Jul-19 18:33N 37°48' W 122°24'5 5.4
2016-Jul-19 17:33N 37°51' W 122°29'3 1.4
2016-Jul-19 15:33N 37°50' W 122°26'3 2.8
2016-Jul-19 14:33N 37°48' W 122°23'10 1.0
2016-Jul-19 04:10N 37°57' W 122°30'6 9.6
2016-Jul-19 03:33N 37°53' W 122°25'3 3.2
2016-Jul-19 02:33N 37°51' W 122°29'5 5.4
2016-Jul-19 01:33N 37°48' W 122°24'4 4.0
2016-Jul-19 00:33N 37°51' W 122°27'1 0.5
2016-Jul-18 23:33N 37°50' W 122°27'4 4.1
2016-Jul-18 22:33N 37°48' W 122°23'1 0.1
2016-Jul-18 01:33N 37°49' W 122°23'5 4.8
2016-Jul-18 00:34N 37°51' W 122°29'  
Track history (hours):
 
Tides and Currents Weather Stations Pressure Air Temp Water Temp Dewpoint Dewpoint Depression Visibility Wind Speed Wind Dir Waves Ship Positions

M S San Francisco

Owner: GOLDEN GATE BRIDGE HWY & TRANSP DISTRICT, LARKSPUR, CA. More information available from US FCC via Universal Licensing System and Coast Guard Vessel Documentation Center.

Last reported at 2016-Jul-28 00:33 UTC. Time now 2016-Jul-28 00:55 UTC.
Position N 37°48' W 122°24'.

Length 58 m.

Type: Passenger vessel. MMSI: 366963980.

Date/timePositionNaut miles runAvg speedWind from/ knotsBaromVisibWave heightAir tempDewpointWater temp
2016-Jul-28 00:33N 37°48' W 122°24'3 2.7
2016-Jul-27 23:33N 37°50' W 122°25'3 3.3
2016-Jul-27 22:33N 37°51' W 122°29'5 5.3
2016-Jul-27 21:33N 37°48' W 122°24'5 5.4
2016-Jul-27 20:34N 37°51' W 122°29'5 4.6
2016-Jul-27 19:33N 37°49' W 122°24'1 1.3
2016-Jul-27 18:34N 37°48' W 122°24'5 5.4
2016-Jul-27 17:33N 37°51' W 122°29'5 5.4
2016-Jul-27 16:33N 37°48' W 122°24'3 2.7
2016-Jul-27 15:33N 37°50' W 122°25'3 2.6
2016-Jul-27 14:34N 37°48' W 122°23'9 9.3
2016-Jul-27 13:33N 37°56' W 122°29'1 0.2
2016-Jul-27 07:12N 37°57' W 122°31'6 9.5
2016-Jul-27 06:33N 37°52' W 122°25'6 5.9
2016-Jul-27 05:33N 37°47' W 122°23'0 0.0
2016-Jul-27 04:33N 37°47' W 122°23'0 0.0
2016-Jul-27 03:33N 37°47' W 122°23'0 0.0
2016-Jul-27 02:33N 37°47' W 122°23'3 3.2
2016-Jul-27 01:34N 37°50' W 122°24'9 6.3
2016-Jul-27 00:12N 37°57' W 122°30'0 0.0
2016-Jul-26 04:33N 37°57' W 122°31'6 5.9
2016-Jul-26 03:33N 37°51' W 122°28'5 4.9
2016-Jul-26 02:33N 37°48' W 122°24'5 5.4
2016-Jul-26 01:33N 37°51' W 122°29'5 5.4
2016-Jul-26 00:34N 37°48' W 122°24'2 2.5
2016-Jul-25 23:33N 37°50' W 122°24'2 2.4
2016-Jul-25 22:34N 37°51' W 122°27'4 4.2
2016-Jul-25 21:33N 37°48' W 122°24'5 5.4
2016-Jul-25 20:34N 37°51' W 122°29'4 3.7
2016-Jul-25 19:33N 37°50' W 122°25'2 2.0
2016-Jul-25 18:33N 37°48' W 122°24'5 5.4
2016-Jul-25 17:34N 37°51' W 122°29'5 5.4
2016-Jul-25 16:33N 37°48' W 122°24'3 2.7
2016-Jul-25 15:33N 37°50' W 122°26'2 2.4
2016-Jul-25 14:33N 37°48' W 122°23'9 8.6
2016-Jul-25 13:33N 37°56' W 122°29'2 0.2
2016-Jul-25 04:33N 37°57' W 122°31'1110.5
2016-Jul-25 03:33N 37°48' W 122°24'5 5.4
2016-Jul-25 02:33N 37°51' W 122°29'5 5.4
2016-Jul-25 01:34N 37°48' W 122°23'5 5.1
2016-Jul-25 00:33N 37°51' W 122°28'3 3.2
2016-Jul-24 23:34N 37°50' W 122°25'2 1.9
2016-Jul-24 22:34N 37°48' W 122°23'5 5.4
2016-Jul-24 21:34N 37°51' W 122°29'6 5.5
2016-Jul-24 20:33N 37°57' W 122°31'0 0.0
2016-Jul-24 19:33N 37°57' W 122°31'0 0.0
2016-Jul-24 18:33N 37°57' W 122°31'0 0.0
2016-Jul-24 17:33N 37°57' W 122°31'0 0.0
2016-Jul-24 16:33N 37°57' W 122°31'0 0.0
2016-Jul-24 15:33N 37°57' W 122°31'0 0.0
2016-Jul-24 14:33N 37°57' W 122°31'0 0.0
2016-Jul-24 13:33N 37°57' W 122°31'0 0.0
2016-Jul-24 12:33N 37°57' W 122°31'0 0.0
2016-Jul-24 11:33N 37°57' W 122°31'0 0.0
2016-Jul-24 10:33N 37°57' W 122°31'0 0.0
2016-Jul-24 09:33N 37°57' W 122°31'0 0.0
2016-Jul-24 08:33N 37°57' W 122°31'0 0.0
2016-Jul-24 07:33N 37°57' W 122°31'0 0.0
2016-Jul-24 06:33N 37°57' W 122°31'0 0.0
2016-Jul-24 05:33N 37°57' W 122°31'0 0.0
2016-Jul-24 04:33N 37°57' W 122°31'0 0.0
2016-Jul-24 03:33N 37°57' W 122°31'0 0.0
2016-Jul-24 02:33N 37°57' W 122°31'1010.5
2016-Jul-24 01:34N 37°48' W 122°24'5 5.4
2016-Jul-24 00:33N 37°51' W 122°29'5 5.4
2016-Jul-23 23:33N 37°48' W 122°24'5 5.4
2016-Jul-23 22:33N 37°51' W 122°29'3 3.3
2016-Jul-23 21:33N 37°50' W 122°25'2 2.2
2016-Jul-23 20:34N 37°48' W 122°24'5 5.4
2016-Jul-23 19:33N 37°51' W 122°29'2 2.1
2016-Jul-23 18:34N 37°50' W 122°26'3 3.4
2016-Jul-23 17:33N 37°48' W 122°24'1110.6
2016-Jul-23 16:33N 37°57' W 122°31'0 0.0
2016-Jul-23 04:17N 37°57' W 122°31'6 8.5
2016-Jul-23 03:33N 37°52' W 122°25'3 3.0
2016-Jul-23 02:33N 37°51' W 122°29'5 5.4
2016-Jul-23 01:33N 37°48' W 122°23'4 4.1
2016-Jul-23 00:33N 37°51' W 122°27'0 0.4
2016-Jul-22 23:33N 37°51' W 122°27'4 4.1
2016-Jul-22 22:33N 37°48' W 122°24'10 9.8
2016-Jul-22 21:33N 37°56' W 122°30'1 0.8
2016-Jul-22 20:33N 37°57' W 122°31'0 0.0
2016-Jul-22 19:33N 37°57' W 122°31'0 0.0
2016-Jul-22 04:33N 37°57' W 122°31'6 5.7
2016-Jul-22 03:33N 37°52' W 122°27'5 4.8
2016-Jul-22 02:33N 37°48' W 122°24'5 5.4
2016-Jul-22 01:34N 37°51' W 122°29'5 5.4
2016-Jul-22 00:34N 37°48' W 122°23'3 2.7
2016-Jul-21 23:33N 37°50' W 122°25'2 2.1
2016-Jul-21 22:33N 37°51' W 122°28'4 4.4
2016-Jul-21 21:33N 37°48' W 122°24'5 5.4
2016-Jul-21 20:33N 37°51' W 122°29'4 4.3
2016-Jul-21 19:34N 37°49' W 122°24'1 1.4
2016-Jul-21 18:33N 37°48' W 122°24'5 5.4
2016-Jul-21 17:33N 37°51' W 122°29'5 5.4
2016-Jul-21 16:33N 37°48' W 122°24'3 2.6
2016-Jul-21 15:33N 37°50' W 122°25'2 2.5
2016-Jul-21 14:34N 37°48' W 122°23'10 9.4
2016-Jul-21 13:32N 37°56' W 122°30'1 0.1
2016-Jul-21 04:19N 37°57' W 122°31'5 6.9
2016-Jul-21 03:34N 37°53' W 122°26'3 3.0
2016-Jul-21 02:34N 37°51' W 122°29'5 5.5
2016-Jul-21 01:34N 37°48' W 122°23'4 4.3
2016-Jul-21 00:33N 37°51' W 122°27'1 0.5
2016-Jul-20 23:34N 37°50' W 122°27'4 3.8
2016-Jul-20 22:33N 37°48' W 122°24'1 0.6
2016-Jul-20 21:33N 37°48' W 122°23'10 0.6
2016-Jul-20 04:12N 37°57' W 122°31'6 9.1
2016-Jul-20 03:33N 37°52' W 122°27'5 4.7
2016-Jul-20 02:33N 37°48' W 122°24'5 5.4
2016-Jul-20 01:33N 37°51' W 122°29'5 5.4
2016-Jul-20 00:34N 37°48' W 122°23'3 2.8
2016-Jul-19 23:34N 37°50' W 122°25'2 1.6
2016-Jul-19 22:34N 37°51' W 122°27'4 4.0
2016-Jul-19 21:33N 37°48' W 122°24'5 5.4
2016-Jul-19 20:33N 37°51' W 122°29'4 3.9
2016-Jul-19 19:32N 37°49' W 122°24'2 1.9
2016-Jul-19 18:33N 37°48' W 122°24'5 5.4
2016-Jul-19 17:33N 37°51' W 122°29'3 1.4
2016-Jul-19 15:33N 37°50' W 122°26'3 2.8
2016-Jul-19 14:33N 37°48' W 122°23'10 1.0
2016-Jul-19 04:10N 37°57' W 122°30'6 9.6
2016-Jul-19 03:33N 37°53' W 122°25'3 3.2
2016-Jul-19 02:33N 37°51' W 122°29'5 5.4
2016-Jul-19 01:33N 37°48' W 122°24'4 4.0
2016-Jul-19 00:33N 37°51' W 122°27'1 0.5
2016-Jul-18 23:33N 37°50' W 122°27'4 4.1
2016-Jul-18 22:33N 37°48' W 122°23'1 0.1
2016-Jul-18 01:33N 37°49' W 122°23'5 4.8
2016-Jul-18 00:34N 37°51' W 122°29'  

Dump ship's entire track history